sensor_id;sensor_type;location;lat;lon;timestamp;P1;durP1;ratioP1;P2;durP2;ratioP2
46953;SDS011;32707;43.886;12.874;2022-09-01T00:01:42;3.17;;;1.90;;
46953;SDS011;32707;43.886;12.874;2022-09-01T00:04:09;3.42;;;2.25;;
46953;SDS011;32707;43.886;12.874;2022-09-01T00:06:37;2.70;;;1.92;;
46953;SDS011;32707;43.886;12.874;2022-09-01T00:09:06;8.95;;;2.03;;
46953;SDS011;32707;43.886;12.874;2022-09-01T00:11:34;6.68;;;2.35;;
46953;SDS011;32707;43.886;12.874;2022-09-01T00:14:01;3.90;;;2.03;;
46953;SDS011;32707;43.886;12.874;2022-09-01T00:16:28;6.03;;;2.20;;
46953;SDS011;32707;43.886;12.874;2022-09-01T00:18:55;6.40;;;2.05;;
46953;SDS011;32707;43.886;12.874;2022-09-01T00:21:38;7.07;;;2.40;;
46953;SDS011;32707;43.886;12.874;2022-09-01T00:24:06;2.50;;;2.00;;
46953;SDS011;32707;43.886;12.874;2022-09-01T00:26:32;10.30;;;2.63;;
46953;SDS011;32707;43.886;12.874;2022-09-01T00:28:57;5.22;;;2.45;;
46953;SDS011;32707;43.886;12.874;2022-09-01T00:31:24;4.78;;;2.22;;
46953;SDS011;32707;43.886;12.874;2022-09-01T00:33:50;5.30;;;2.38;;
46953;SDS011;32707;43.886;12.874;2022-09-01T00:36:16;6.18;;;2.80;;
46953;SDS011;32707;43.886;12.874;2022-09-01T00:38:42;6.32;;;2.40;;
46953;SDS011;32707;43.886;12.874;2022-09-01T00:41:08;2.83;;;2.63;;
46953;SDS011;32707;43.886;12.874;2022-09-01T00:46:24;10.70;;;2.60;;
46953;SDS011;32707;43.886;12.874;2022-09-01T00:48:55;2.72;;;2.33;;
46953;SDS011;32707;43.886;12.874;2022-09-01T00:51:23;3.72;;;2.05;;
46953;SDS011;32707;43.886;12.874;2022-09-01T00:53:50;7.78;;;2.22;;
46953;SDS011;32707;43.886;12.874;2022-09-01T00:56:19;3.10;;;2.08;;
46953;SDS011;32707;43.886;12.874;2022-09-01T00:58:45;7.63;;;2.17;;
46953;SDS011;32707;43.886;12.874;2022-09-01T01:01:10;3.92;;;3.00;;
46953;SDS011;32707;43.886;12.874;2022-09-01T01:03:36;5.25;;;2.50;;
46953;SDS011;32707;43.886;12.874;2022-09-01T01:06:07;8.80;;;2.15;;
46953;SDS011;32707;43.886;12.874;2022-09-01T01:08:34;7.28;;;2.22;;
46953;SDS011;32707;43.886;12.874;2022-09-01T01:11:08;6.93;;;2.13;;
46953;SDS011;32707;43.886;12.874;2022-09-01T01:13:55;2.15;;;1.92;;
46953;SDS011;32707;43.886;12.874;2022-09-01T01:16:25;10.07;;;2.58;;
46953;SDS011;32707;43.886;12.874;2022-09-01T01:18:52;5.82;;;2.83;;
46953;SDS011;32707;43.886;12.874;2022-09-01T01:21:22;4.97;;;2.72;;
46953;SDS011;32707;43.886;12.874;2022-09-01T01:26:55;2.72;;;2.33;;
46953;SDS011;32707;43.886;12.874;2022-09-01T01:29:24;7.30;;;2.33;;
46953;SDS011;32707;43.886;12.874;2022-09-01T01:32:03;3.88;;;2.50;;
46953;SDS011;32707;43.886;12.874;2022-09-01T01:34:36;7.88;;;2.35;;
46953;SDS011;32707;43.886;12.874;2022-09-01T01:37:04;6.65;;;2.75;;
46953;SDS011;32707;43.886;12.874;2022-09-01T01:39:29;3.95;;;2.53;;
46953;SDS011;32707;43.886;12.874;2022-09-01T01:41:55;6.50;;;2.95;;
46953;SDS011;32707;43.886;12.874;2022-09-01T01:44:24;11.75;;;2.97;;
46953;SDS011;32707;43.886;12.874;2022-09-01T01:46:52;5.07;;;2.35;;
46953;SDS011;32707;43.886;12.874;2022-09-01T01:49:21;4.05;;;2.88;;
46953;SDS011;32707;43.886;12.874;2022-09-01T01:51:50;3.10;;;2.75;;
46953;SDS011;32707;43.886;12.874;2022-09-01T01:54:20;5.18;;;3.10;;
46953;SDS011;32707;43.886;12.874;2022-09-01T01:56:47;5.25;;;2.80;;
46953;SDS011;32707;43.886;12.874;2022-09-01T01:59:13;3.08;;;2.80;;
46953;SDS011;32707;43.886;12.874;2022-09-01T02:01:40;4.32;;;2.83;;
46953;SDS011;32707;43.886;12.874;2022-09-01T02:04:08;4.13;;;3.03;;
46953;SDS011;32707;43.886;12.874;2022-09-01T02:10:15;4.25;;;2.40;;
46953;SDS011;32707;43.886;12.874;2022-09-01T02:12:41;9.00;;;2.88;;
46953;SDS011;32707;43.886;12.874;2022-09-01T02:15:07;4.35;;;2.50;;
46953;SDS011;32707;43.886;12.874;2022-09-01T02:17:35;7.40;;;2.85;;
46953;SDS011;32707;43.886;12.874;2022-09-01T02:20:03;4.75;;;2.95;;
46953;SDS011;32707;43.886;12.874;2022-09-01T02:22:28;5.93;;;3.00;;
46953;SDS011;32707;43.886;12.874;2022-09-01T02:24:54;6.75;;;2.88;;
46953;SDS011;32707;43.886;12.874;2022-09-01T02:27:20;7.53;;;3.42;;
46953;SDS011;32707;43.886;12.874;2022-09-01T02:29:50;4.82;;;3.05;;
46953;SDS011;32707;43.886;12.874;2022-09-01T02:32:18;3.75;;;3.30;;
46953;SDS011;32707;43.886;12.874;2022-09-01T02:34:47;4.32;;;2.83;;
46953;SDS011;32707;43.886;12.874;2022-09-01T02:37:17;5.28;;;3.13;;
46953;SDS011;32707;43.886;12.874;2022-09-01T02:39:49;11.15;;;3.22;;
46953;SDS011;32707;43.886;12.874;2022-09-01T02:42:21;7.32;;;3.63;;
46953;SDS011;32707;43.886;12.874;2022-09-01T02:44:50;5.50;;;3.45;;
46953;SDS011;32707;43.886;12.874;2022-09-01T02:47:16;8.23;;;3.22;;
46953;SDS011;32707;43.886;12.874;2022-09-01T02:49:42;11.25;;;3.60;;
46953;SDS011;32707;43.886;12.874;2022-09-01T02:52:08;6.05;;;3.20;;
46953;SDS011;32707;43.886;12.874;2022-09-01T02:54:34;5.07;;;3.75;;
46953;SDS011;32707;43.886;12.874;2022-09-01T02:57:00;6.70;;;2.95;;
46953;SDS011;32707;43.886;12.874;2022-09-01T02:59:28;6.07;;;3.60;;
46953;SDS011;32707;43.886;12.874;2022-09-01T03:01:54;7.57;;;3.70;;
46953;SDS011;32707;43.886;12.874;2022-09-01T03:04:21;4.32;;;3.47;;
46953;SDS011;32707;43.886;12.874;2022-09-01T03:06:48;4.43;;;3.20;;
46953;SDS011;32707;43.886;12.874;2022-09-01T03:09:19;6.13;;;3.53;;
46953;SDS011;32707;43.886;12.874;2022-09-01T03:11:46;7.68;;;3.75;;
46953;SDS011;32707;43.886;12.874;2022-09-01T03:14:13;6.28;;;3.33;;
46953;SDS011;32707;43.886;12.874;2022-09-01T03:16:40;7.10;;;3.45;;
46953;SDS011;32707;43.886;12.874;2022-09-01T03:19:06;5.15;;;3.30;;
46953;SDS011;32707;43.886;12.874;2022-09-01T03:21:34;6.55;;;3.72;;
46953;SDS011;32707;43.886;12.874;2022-09-01T03:24:01;7.40;;;3.30;;
46953;SDS011;32707;43.886;12.874;2022-09-01T03:26:28;6.70;;;4.30;;
46953;SDS011;32707;43.886;12.874;2022-09-01T03:28:54;4.47;;;3.40;;
46953;SDS011;32707;43.886;12.874;2022-09-01T03:31:20;9.32;;;3.45;;
46953;SDS011;32707;43.886;12.874;2022-09-01T03:33:46;10.52;;;3.88;;
46953;SDS011;32707;43.886;12.874;2022-09-01T03:36:11;5.97;;;3.42;;
46953;SDS011;32707;43.886;12.874;2022-09-01T03:38:43;14.00;;;3.70;;
46953;SDS011;32707;43.886;12.874;2022-09-01T03:41:14;9.98;;;3.55;;
46953;SDS011;32707;43.886;12.874;2022-09-01T03:43:42;7.32;;;3.33;;
46953;SDS011;32707;43.886;12.874;2022-09-01T03:46:08;10.43;;;3.30;;
46953;SDS011;32707;43.886;12.874;2022-09-01T03:48:40;5.10;;;3.50;;
46953;SDS011;32707;43.886;12.874;2022-09-01T03:51:07;7.03;;;3.28;;
46953;SDS011;32707;43.886;12.874;2022-09-01T03:53:33;9.45;;;3.58;;
46953;SDS011;32707;43.886;12.874;2022-09-01T03:56:02;4.85;;;3.00;;
46953;SDS011;32707;43.886;12.874;2022-09-01T03:58:28;6.80;;;3.42;;
46953;SDS011;32707;43.886;12.874;2022-09-01T04:00:55;5.40;;;2.67;;
46953;SDS011;32707;43.886;12.874;2022-09-01T04:03:26;4.22;;;3.53;;
46953;SDS011;32707;43.886;12.874;2022-09-01T04:05:56;6.28;;;3.90;;
46953;SDS011;32707;43.886;12.874;2022-09-01T04:08:23;5.22;;;3.25;;
46953;SDS011;32707;43.886;12.874;2022-09-01T04:10:55;4.50;;;4.03;;
46953;SDS011;32707;43.886;12.874;2022-09-01T04:13:23;7.93;;;3.28;;
46953;SDS011;32707;43.886;12.874;2022-09-01T04:15:51;7.78;;;3.38;;
46953;SDS011;32707;43.886;12.874;2022-09-01T04:18:17;10.13;;;3.20;;
46953;SDS011;32707;43.886;12.874;2022-09-01T04:20:48;5.25;;;3.58;;
46953;SDS011;32707;43.886;12.874;2022-09-01T04:23:18;7.75;;;3.65;;
46953;SDS011;32707;43.886;12.874;2022-09-01T04:28:36;5.20;;;3.00;;
46953;SDS011;32707;43.886;12.874;2022-09-01T04:31:09;4.43;;;3.08;;
46953;SDS011;32707;43.886;12.874;2022-09-01T04:33:38;8.48;;;2.90;;
46953;SDS011;32707;43.886;12.874;2022-09-01T04:36:05;10.90;;;3.40;;
46953;SDS011;32707;43.886;12.874;2022-09-01T04:38:38;7.22;;;2.50;;
46953;SDS011;32707;43.886;12.874;2022-09-01T04:41:04;5.78;;;2.92;;
46953;SDS011;32707;43.886;12.874;2022-09-01T04:43:30;5.63;;;2.75;;
46953;SDS011;32707;43.886;12.874;2022-09-01T04:45:57;5.10;;;2.25;;
46953;SDS011;32707;43.886;12.874;2022-09-01T04:48:23;4.25;;;2.90;;
46953;SDS011;32707;43.886;12.874;2022-09-01T04:50:49;9.25;;;2.92;;
46953;SDS011;32707;43.886;12.874;2022-09-01T04:53:17;3.38;;;2.30;;
46953;SDS011;32707;43.886;12.874;2022-09-01T04:55:43;2.42;;;2.22;;
46953;SDS011;32707;43.886;12.874;2022-09-01T04:58:12;6.05;;;3.28;;
46953;SDS011;32707;43.886;12.874;2022-09-01T05:00:41;6.55;;;2.58;;
46953;SDS011;32707;43.886;12.874;2022-09-01T05:03:09;10.63;;;2.47;;
46953;SDS011;32707;43.886;12.874;2022-09-01T05:05:37;4.97;;;2.00;;
46953;SDS011;32707;43.886;12.874;2022-09-01T05:08:06;10.13;;;2.65;;
46953;SDS011;32707;43.886;12.874;2022-09-01T05:10:45;9.70;;;2.70;;
46953;SDS011;32707;43.886;12.874;2022-09-01T05:13:14;7.53;;;3.28;;
46953;SDS011;32707;43.886;12.874;2022-09-01T05:15:42;8.85;;;2.83;;
46953;SDS011;32707;43.886;12.874;2022-09-01T05:18:12;6.47;;;3.20;;
46953;SDS011;32707;43.886;12.874;2022-09-01T05:20:40;4.93;;;3.30;;
46953;SDS011;32707;43.886;12.874;2022-09-01T05:23:10;5.75;;;3.08;;
46953;SDS011;32707;43.886;12.874;2022-09-01T05:25:42;7.82;;;3.33;;
46953;SDS011;32707;43.886;12.874;2022-09-01T05:28:09;5.40;;;3.35;;
46953;SDS011;32707;43.886;12.874;2022-09-01T05:30:39;8.55;;;3.47;;
46953;SDS011;32707;43.886;12.874;2022-09-01T05:33:06;5.85;;;2.88;;
46953;SDS011;32707;43.886;12.874;2022-09-01T05:35:39;6.55;;;3.65;;
46953;SDS011;32707;43.886;12.874;2022-09-01T05:38:09;5.45;;;3.60;;
46953;SDS011;32707;43.886;12.874;2022-09-01T05:40:41;6.35;;;3.53;;
46953;SDS011;32707;43.886;12.874;2022-09-01T05:43:09;6.78;;;3.92;;
46953;SDS011;32707;43.886;12.874;2022-09-01T05:45:40;9.65;;;4.28;;
46953;SDS011;32707;43.886;12.874;2022-09-01T05:48:12;9.05;;;4.53;;
46953;SDS011;32707;43.886;12.874;2022-09-01T05:50:40;4.93;;;4.05;;
46953;SDS011;32707;43.886;12.874;2022-09-01T05:53:11;6.00;;;4.18;;
46953;SDS011;32707;43.886;12.874;2022-09-01T05:55:43;8.23;;;4.95;;
46953;SDS011;32707;43.886;12.874;2022-09-01T05:58:10;6.40;;;3.88;;
46953;SDS011;32707;43.886;12.874;2022-09-01T06:00:39;9.52;;;4.55;;
46953;SDS011;32707;43.886;12.874;2022-09-01T06:03:06;5.50;;;4.45;;
46953;SDS011;32707;43.886;12.874;2022-09-01T06:05:34;8.25;;;4.13;;
46953;SDS011;32707;43.886;12.874;2022-09-01T06:08:01;8.60;;;5.00;;
46953;SDS011;32707;43.886;12.874;2022-09-01T06:10:30;6.90;;;4.30;;
46953;SDS011;32707;43.886;12.874;2022-09-01T06:12:57;7.10;;;4.82;;
46953;SDS011;32707;43.886;12.874;2022-09-01T06:15:26;9.85;;;5.35;;
46953;SDS011;32707;43.886;12.874;2022-09-01T06:17:53;9.90;;;5.22;;
46953;SDS011;32707;43.886;12.874;2022-09-01T06:20:19;8.70;;;5.20;;
46953;SDS011;32707;43.886;12.874;2022-09-01T06:22:47;13.23;;;5.82;;
46953;SDS011;32707;43.886;12.874;2022-09-01T06:25:13;6.22;;;4.88;;
46953;SDS011;32707;43.886;12.874;2022-09-01T06:27:41;6.75;;;4.63;;
46953;SDS011;32707;43.886;12.874;2022-09-01T06:30:08;11.13;;;4.95;;
46953;SDS011;32707;43.886;12.874;2022-09-01T06:32:44;9.48;;;5.50;;
46953;SDS011;32707;43.886;12.874;2022-09-01T06:35:10;8.95;;;5.10;;
46953;SDS011;32707;43.886;12.874;2022-09-01T06:37:37;4.40;;;3.80;;
46953;SDS011;32707;43.886;12.874;2022-09-01T06:40:04;10.35;;;2.85;;
46953;SDS011;32707;43.886;12.874;2022-09-01T06:42:31;4.47;;;2.47;;
46953;SDS011;32707;43.886;12.874;2022-09-01T06:45:02;14.07;;;1.85;;
46953;SDS011;32707;43.886;12.874;2022-09-01T06:47:28;8.38;;;1.40;;
46953;SDS011;32707;43.886;12.874;2022-09-01T06:49:54;7.28;;;1.33;;
46953;SDS011;32707;43.886;12.874;2022-09-01T06:52:23;11.38;;;1.42;;
46953;SDS011;32707;43.886;12.874;2022-09-01T06:54:49;4.45;;;1.20;;
46953;SDS011;32707;43.886;12.874;2022-09-01T06:57:17;5.40;;;1.38;;
46953;SDS011;32707;43.886;12.874;2022-09-01T06:59:42;2.80;;;1.15;;
46953;SDS011;32707;43.886;12.874;2022-09-01T07:02:08;8.50;;;1.23;;
46953;SDS011;32707;43.886;12.874;2022-09-01T07:04:35;3.08;;;1.27;;
46953;SDS011;32707;43.886;12.874;2022-09-01T07:07:03;1.00;;;0.80;;
46953;SDS011;32707;43.886;12.874;2022-09-01T07:09:29;7.93;;;1.42;;
46953;SDS011;32707;43.886;12.874;2022-09-01T07:11:55;8.52;;;1.42;;
46953;SDS011;32707;43.886;12.874;2022-09-01T07:14:22;8.02;;;1.50;;
46953;SDS011;32707;43.886;12.874;2022-09-01T07:16:47;5.60;;;1.60;;
46953;SDS011;32707;43.886;12.874;2022-09-01T07:19:14;7.60;;;1.65;;
46953;SDS011;32707;43.886;12.874;2022-09-01T07:21:41;13.98;;;2.08;;
46953;SDS011;32707;43.886;12.874;2022-09-01T07:24:08;13.52;;;1.90;;
46953;SDS011;32707;43.886;12.874;2022-09-01T07:26:36;11.27;;;2.20;;
46953;SDS011;32707;43.886;12.874;2022-09-01T07:29:05;11.95;;;2.00;;
46953;SDS011;32707;43.886;12.874;2022-09-01T07:31:32;9.68;;;1.60;;
46953;SDS011;32707;43.886;12.874;2022-09-01T07:34:03;14.88;;;1.90;;
46953;SDS011;32707;43.886;12.874;2022-09-01T07:36:30;11.80;;;1.95;;
46953;SDS011;32707;43.886;12.874;2022-09-01T07:38:56;10.38;;;1.60;;
46953;SDS011;32707;43.886;12.874;2022-09-01T07:41:24;8.68;;;1.60;;
46953;SDS011;32707;43.886;12.874;2022-09-01T07:43:50;12.18;;;1.80;;
46953;SDS011;32707;43.886;12.874;2022-09-01T07:46:21;10.88;;;2.15;;
46953;SDS011;32707;43.886;12.874;2022-09-01T07:48:48;9.20;;;1.40;;
46953;SDS011;32707;43.886;12.874;2022-09-01T07:51:16;13.60;;;1.83;;
46953;SDS011;32707;43.886;12.874;2022-09-01T07:53:44;10.13;;;1.85;;
46953;SDS011;32707;43.886;12.874;2022-09-01T07:56:12;18.20;;;1.85;;
46953;SDS011;32707;43.886;12.874;2022-09-01T07:58:39;8.32;;;1.60;;
46953;SDS011;32707;43.886;12.874;2022-09-01T08:01:09;8.45;;;1.77;;
46953;SDS011;32707;43.886;12.874;2022-09-01T08:03:37;4.72;;;1.30;;
46953;SDS011;32707;43.886;12.874;2022-09-01T08:06:05;8.30;;;1.40;;
46953;SDS011;32707;43.886;12.874;2022-09-01T08:08:32;10.88;;;1.50;;
46953;SDS011;32707;43.886;12.874;2022-09-01T08:10:59;5.55;;;1.08;;
46953;SDS011;32707;43.886;12.874;2022-09-01T08:13:25;7.03;;;1.48;;
46953;SDS011;32707;43.886;12.874;2022-09-01T08:15:51;5.53;;;1.50;;
46953;SDS011;32707;43.886;12.874;2022-09-01T08:18:16;14.00;;;2.00;;
46953;SDS011;32707;43.886;12.874;2022-09-01T08:20:42;5.43;;;1.15;;
46953;SDS011;32707;43.886;12.874;2022-09-01T08:23:10;5.10;;;1.60;;
46953;SDS011;32707;43.886;12.874;2022-09-01T08:25:38;9.02;;;1.30;;
46953;SDS011;32707;43.886;12.874;2022-09-01T08:28:06;6.10;;;1.10;;
46953;SDS011;32707;43.886;12.874;2022-09-01T08:30:32;8.13;;;1.33;;
46953;SDS011;32707;43.886;12.874;2022-09-01T08:32:58;7.00;;;1.45;;
46953;SDS011;32707;43.886;12.874;2022-09-01T08:35:24;4.60;;;1.45;;
46953;SDS011;32707;43.886;12.874;2022-09-01T08:37:53;11.52;;;2.33;;
46953;SDS011;32707;43.886;12.874;2022-09-01T08:40:19;10.65;;;1.33;;
46953;SDS011;32707;43.886;12.874;2022-09-01T08:45:45;7.78;;;1.50;;
46953;SDS011;32707;43.886;12.874;2022-09-01T08:48:38;5.60;;;1.20;;
46953;SDS011;32707;43.886;12.874;2022-09-01T08:54:07;7.30;;;1.13;;
46953;SDS011;32707;43.886;12.874;2022-09-01T08:56:42;7.65;;;1.15;;
46953;SDS011;32707;43.886;12.874;2022-09-01T08:59:08;9.25;;;1.55;;
46953;SDS011;32707;43.886;12.874;2022-09-01T09:01:48;8.45;;;1.08;;
46953;SDS011;32707;43.886;12.874;2022-09-01T09:07:13;6.70;;;1.35;;
46953;SDS011;32707;43.886;12.874;2022-09-01T09:09:58;5.30;;;1.40;;
46953;SDS011;32707;43.886;12.874;2022-09-01T09:20:45;3.38;;;0.93;;
46953;SDS011;32707;43.886;12.874;2022-09-01T09:23:16;4.10;;;1.10;;
46953;SDS011;32707;43.886;12.874;2022-09-01T09:25:50;4.63;;;1.08;;
46953;SDS011;32707;43.886;12.874;2022-09-01T09:28:20;3.33;;;0.90;;
46953;SDS011;32707;43.886;12.874;2022-09-01T09:30:46;4.95;;;0.90;;
46953;SDS011;32707;43.886;12.874;2022-09-01T09:36:19;4.50;;;1.00;;
46953;SDS011;32707;43.886;12.874;2022-09-01T09:38:51;3.90;;;0.70;;
46953;SDS011;32707;43.886;12.874;2022-09-01T09:41:28;7.72;;;0.93;;
46953;SDS011;32707;43.886;12.874;2022-09-01T09:44:09;1.30;;;0.82;;
46953;SDS011;32707;43.886;12.874;2022-09-01T09:46:42;1.85;;;1.00;;
46953;SDS011;32707;43.886;12.874;2022-09-01T09:49:20;3.80;;;1.10;;
46953;SDS011;32707;43.886;12.874;2022-09-01T09:51:51;4.38;;;1.05;;
46953;SDS011;32707;43.886;12.874;2022-09-01T09:54:31;11.80;;;1.38;;
46953;SDS011;32707;43.886;12.874;2022-09-01T09:59:40;3.90;;;1.25;;
46953;SDS011;32707;43.886;12.874;2022-09-01T10:07:47;2.00;;;1.35;;
46953;SDS011;32707;43.886;12.874;2022-09-01T10:13:29;8.43;;;1.70;;
46953;SDS011;32707;43.886;12.874;2022-09-01T10:16:03;8.77;;;2.40;;
46953;SDS011;32707;43.886;12.874;2022-09-01T10:18:49;4.03;;;1.80;;
46953;SDS011;32707;43.886;12.874;2022-09-01T10:21:20;5.13;;;1.85;;
46953;SDS011;32707;43.886;12.874;2022-09-01T10:23:50;11.68;;;1.80;;
46953;SDS011;32707;43.886;12.874;2022-09-01T10:28:58;3.47;;;1.80;;
46953;SDS011;32707;43.886;12.874;2022-09-01T10:31:31;2.42;;;1.45;;
46953;SDS011;32707;43.886;12.874;2022-09-01T10:33:59;3.17;;;1.73;;
46953;SDS011;32707;43.886;12.874;2022-09-01T10:36:27;7.53;;;1.77;;
46953;SDS011;32707;43.886;12.874;2022-09-01T10:38:54;4.78;;;1.83;;
46953;SDS011;32707;43.886;12.874;2022-09-01T10:44:24;6.38;;;1.83;;
46953;SDS011;32707;43.886;12.874;2022-09-01T10:46:59;3.60;;;1.60;;
46953;SDS011;32707;43.886;12.874;2022-09-01T10:51:53;8.32;;;1.45;;
46953;SDS011;32707;43.886;12.874;2022-09-01T10:54:55;2.92;;;0.93;;
46953;SDS011;32707;43.886;12.874;2022-09-01T11:10:54;3.75;;;0.77;;
46953;SDS011;32707;43.886;12.874;2022-09-01T11:18:52;2.15;;;1.00;;
46953;SDS011;32707;43.886;12.874;2022-09-01T11:21:25;6.35;;;1.20;;
46953;SDS011;32707;43.886;12.874;2022-09-01T11:26:55;8.50;;;1.17;;
46953;SDS011;32707;43.886;12.874;2022-09-01T11:32:27;4.75;;;1.13;;
46953;SDS011;32707;43.886;12.874;2022-09-01T11:34:57;6.03;;;1.27;;
46953;SDS011;32707;43.886;12.874;2022-09-01T11:37:27;6.30;;;1.65;;
46953;SDS011;32707;43.886;12.874;2022-09-01T11:39:54;3.90;;;1.13;;
46953;SDS011;32707;43.886;12.874;2022-09-01T11:42:30;5.32;;;1.42;;
46953;SDS011;32707;43.886;12.874;2022-09-01T11:45:06;5.50;;;1.40;;
46953;SDS011;32707;43.886;12.874;2022-09-01T11:47:46;3.55;;;1.48;;
46953;SDS011;32707;43.886;12.874;2022-09-01T11:50:31;4.25;;;1.40;;
46953;SDS011;32707;43.886;12.874;2022-09-01T11:53:00;4.65;;;0.93;;
46953;SDS011;32707;43.886;12.874;2022-09-01T11:55:30;3.63;;;1.20;;
46953;SDS011;32707;43.886;12.874;2022-09-01T11:58:05;2.75;;;1.23;;
46953;SDS011;32707;43.886;12.874;2022-09-01T12:00:35;7.07;;;1.42;;
46953;SDS011;32707;43.886;12.874;2022-09-01T12:03:04;6.38;;;1.13;;
46953;SDS011;32707;43.886;12.874;2022-09-01T12:05:44;4.50;;;1.27;;
46953;SDS011;32707;43.886;12.874;2022-09-01T12:08:15;4.13;;;0.77;;
46953;SDS011;32707;43.886;12.874;2022-09-01T12:10:42;3.45;;;0.93;;
46953;SDS011;32707;43.886;12.874;2022-09-01T12:13:22;8.32;;;1.08;;
46953;SDS011;32707;43.886;12.874;2022-09-01T12:15:58;3.42;;;1.20;;
46953;SDS011;32707;43.886;12.874;2022-09-01T12:18:27;4.53;;;1.30;;
46953;SDS011;32707;43.886;12.874;2022-09-01T12:20:59;5.45;;;1.23;;
46953;SDS011;32707;43.886;12.874;2022-09-01T12:26:00;2.65;;;1.15;;
46953;SDS011;32707;43.886;12.874;2022-09-01T12:28:52;5.72;;;1.20;;
46953;SDS011;32707;43.886;12.874;2022-09-01T12:31:24;2.80;;;1.00;;
46953;SDS011;32707;43.886;12.874;2022-09-01T12:33:51;5.45;;;1.10;;
46953;SDS011;32707;43.886;12.874;2022-09-01T12:41:46;10.70;;;1.02;;
46953;SDS011;32707;43.886;12.874;2022-09-01T12:44:26;3.40;;;0.52;;
46953;SDS011;32707;43.886;12.874;2022-09-01T12:47:02;6.63;;;0.98;;
46953;SDS011;32707;43.886;12.874;2022-09-01T12:49:36;4.75;;;1.08;;
46953;SDS011;32707;43.886;12.874;2022-09-01T12:52:05;3.95;;;0.93;;
46953;SDS011;32707;43.886;12.874;2022-09-01T12:54:35;1.95;;;0.85;;
46953;SDS011;32707;43.886;12.874;2022-09-01T12:57:01;4.57;;;1.15;;
46953;SDS011;32707;43.886;12.874;2022-09-01T12:59:27;4.93;;;1.00;;
46953;SDS011;32707;43.886;12.874;2022-09-01T13:01:52;2.30;;;0.93;;
46953;SDS011;32707;43.886;12.874;2022-09-01T13:04:26;5.72;;;1.17;;
46953;SDS011;32707;43.886;12.874;2022-09-01T13:06:55;5.53;;;1.10;;
46953;SDS011;32707;43.886;12.874;2022-09-01T13:09:24;7.18;;;0.68;;
46953;SDS011;32707;43.886;12.874;2022-09-01T13:11:51;5.63;;;0.75;;
46953;SDS011;32707;43.886;12.874;2022-09-01T13:14:17;2.15;;;0.60;;
46953;SDS011;32707;43.886;12.874;2022-09-01T13:16:44;6.22;;;1.13;;
46953;SDS011;32707;43.886;12.874;2022-09-01T13:19:14;2.13;;;0.60;;
46953;SDS011;32707;43.886;12.874;2022-09-01T13:21:40;5.13;;;0.80;;
46953;SDS011;32707;43.886;12.874;2022-09-01T13:24:05;1.13;;;0.60;;
46953;SDS011;32707;43.886;12.874;2022-09-01T13:26:50;3.47;;;0.65;;
46953;SDS011;32707;43.886;12.874;2022-09-01T13:29:21;4.03;;;0.82;;
46953;SDS011;32707;43.886;12.874;2022-09-01T13:31:47;0.95;;;0.50;;
46953;SDS011;32707;43.886;12.874;2022-09-01T13:34:13;5.97;;;0.70;;
46953;SDS011;32707;43.886;12.874;2022-09-01T13:36:39;2.33;;;0.50;;
46953;SDS011;32707;43.886;12.874;2022-09-01T13:39:04;4.38;;;0.63;;
46953;SDS011;32707;43.886;12.874;2022-09-01T13:41:31;3.95;;;0.88;;
46953;SDS011;32707;43.886;12.874;2022-09-01T13:43:57;3.13;;;0.80;;
46953;SDS011;32707;43.886;12.874;2022-09-01T13:46:23;7.47;;;0.90;;
46953;SDS011;32707;43.886;12.874;2022-09-01T13:48:48;2.28;;;0.60;;
46953;SDS011;32707;43.886;12.874;2022-09-01T13:51:25;7.35;;;1.13;;
46953;SDS011;32707;43.886;12.874;2022-09-01T13:53:52;3.60;;;1.00;;
46953;SDS011;32707;43.886;12.874;2022-09-01T13:56:20;4.20;;;0.85;;
46953;SDS011;32707;43.886;12.874;2022-09-01T13:58:49;6.18;;;0.60;;
46953;SDS011;32707;43.886;12.874;2022-09-01T14:01:15;4.43;;;1.00;;
46953;SDS011;32707;43.886;12.874;2022-09-01T14:03:41;1.75;;;0.60;;
46953;SDS011;32707;43.886;12.874;2022-09-01T14:06:08;2.25;;;0.77;;
46953;SDS011;32707;43.886;12.874;2022-09-01T14:08:35;1.65;;;0.75;;
46953;SDS011;32707;43.886;12.874;2022-09-01T14:11:01;9.57;;;1.30;;
46953;SDS011;32707;43.886;12.874;2022-09-01T14:13:27;4.07;;;0.98;;
46953;SDS011;32707;43.886;12.874;2022-09-01T14:15:55;5.53;;;1.38;;
46953;SDS011;32707;43.886;12.874;2022-09-01T14:18:20;3.05;;;0.70;;
46953;SDS011;32707;43.886;12.874;2022-09-01T14:20:47;1.65;;;0.40;;
46953;SDS011;32707;43.886;12.874;2022-09-01T14:23:15;2.72;;;0.90;;
46953;SDS011;32707;43.886;12.874;2022-09-01T14:25:46;2.45;;;0.70;;
46953;SDS011;32707;43.886;12.874;2022-09-01T14:28:13;4.28;;;0.85;;
46953;SDS011;32707;43.886;12.874;2022-09-01T14:30:39;2.08;;;0.70;;
46953;SDS011;32707;43.886;12.874;2022-09-01T14:33:07;4.30;;;0.60;;
46953;SDS011;32707;43.886;12.874;2022-09-01T14:35:35;7.43;;;1.05;;
46953;SDS011;32707;43.886;12.874;2022-09-01T14:38:03;3.85;;;0.90;;
46953;SDS011;32707;43.886;12.874;2022-09-01T14:40:31;2.88;;;0.70;;
46953;SDS011;32707;43.886;12.874;2022-09-01T14:42:57;3.13;;;0.68;;
46953;SDS011;32707;43.886;12.874;2022-09-01T14:45:24;2.55;;;0.80;;
46953;SDS011;32707;43.886;12.874;2022-09-01T14:47:57;6.97;;;0.93;;
46953;SDS011;32707;43.886;12.874;2022-09-01T14:50:25;5.18;;;0.90;;
46953;SDS011;32707;43.886;12.874;2022-09-01T14:52:54;3.70;;;0.60;;
46953;SDS011;32707;43.886;12.874;2022-09-01T14:55:24;1.23;;;0.80;;
46953;SDS011;32707;43.886;12.874;2022-09-01T14:57:52;1.98;;;1.10;;
46953;SDS011;32707;43.886;12.874;2022-09-01T15:00:19;7.05;;;1.20;;
46953;SDS011;32707;43.886;12.874;2022-09-01T15:02:48;2.58;;;1.02;;
46953;SDS011;32707;43.886;12.874;2022-09-01T15:05:16;1.95;;;0.88;;
46953;SDS011;32707;43.886;12.874;2022-09-01T15:07:43;6.07;;;0.93;;
46953;SDS011;32707;43.886;12.874;2022-09-01T15:10:10;1.48;;;0.80;;
46953;SDS011;32707;43.886;12.874;2022-09-01T15:12:37;1.38;;;0.75;;
46953;SDS011;32707;43.886;12.874;2022-09-01T15:15:03;2.40;;;0.60;;
46953;SDS011;32707;43.886;12.874;2022-09-01T15:17:30;1.52;;;0.60;;
46953;SDS011;32707;43.886;12.874;2022-09-01T15:19:56;0.63;;;0.50;;
46953;SDS011;32707;43.886;12.874;2022-09-01T15:22:41;4.53;;;0.68;;
46953;SDS011;32707;43.886;12.874;2022-09-01T15:25:08;1.48;;;0.60;;
46953;SDS011;32707;43.886;12.874;2022-09-01T15:27:34;0.45;;;0.45;;
46953;SDS011;32707;43.886;12.874;2022-09-01T15:29:59;1.58;;;0.65;;
46953;SDS011;32707;43.886;12.874;2022-09-01T15:32:25;5.65;;;0.82;;
46953;SDS011;32707;43.886;12.874;2022-09-01T15:34:54;3.03;;;0.73;;
46953;SDS011;32707;43.886;12.874;2022-09-01T15:37:21;0.88;;;0.60;;
46953;SDS011;32707;43.886;12.874;2022-09-01T15:39:56;1.27;;;0.90;;
46953;SDS011;32707;43.886;12.874;2022-09-01T15:42:22;5.18;;;1.00;;
46953;SDS011;32707;43.886;12.874;2022-09-01T15:44:51;4.32;;;0.90;;
46953;SDS011;32707;43.886;12.874;2022-09-01T15:47:20;3.63;;;0.80;;
46953;SDS011;32707;43.886;12.874;2022-09-01T15:49:45;1.88;;;1.00;;
46953;SDS011;32707;43.886;12.874;2022-09-01T15:52:10;3.53;;;0.85;;
46953;SDS011;32707;43.886;12.874;2022-09-01T15:54:37;7.88;;;0.90;;
46953;SDS011;32707;43.886;12.874;2022-09-01T15:57:03;0.57;;;0.57;;
46953;SDS011;32707;43.886;12.874;2022-09-01T15:59:33;3.03;;;0.70;;
46953;SDS011;32707;43.886;12.874;2022-09-01T16:01:59;3.58;;;1.00;;
46953;SDS011;32707;43.886;12.874;2022-09-01T16:04:25;3.42;;;0.80;;
46953;SDS011;32707;43.886;12.874;2022-09-01T16:06:52;1.10;;;0.75;;
46953;SDS011;32707;43.886;12.874;2022-09-01T16:09:20;1.90;;;0.90;;